sensor_id;sensor_type;location;lat;lon;timestamp;P1;durP1;ratioP1;P2;durP2;ratioP2
6422;SDS011;3244;42.708;23.288;2023-01-08T00:01:11;55.05;;;27.05;;
6422;SDS011;3244;42.708;23.288;2023-01-08T00:03:38;52.33;;;25.60;;
6422;SDS011;3244;42.708;23.288;2023-01-08T00:06:06;47.13;;;24.75;;
6422;SDS011;3244;42.708;23.288;2023-01-08T00:08:35;54.33;;;25.80;;
6422;SDS011;3244;42.708;23.288;2023-01-08T00:11:03;51.40;;;25.77;;
6422;SDS011;3244;42.708;23.288;2023-01-08T00:13:29;46.38;;;26.17;;
6422;SDS011;3244;42.708;23.288;2023-01-08T00:15:56;44.65;;;26.25;;
6422;SDS011;3244;42.708;23.288;2023-01-08T00:18:29;48.92;;;26.27;;
6422;SDS011;3244;42.708;23.288;2023-01-08T00:20:56;52.63;;;26.97;;
6422;SDS011;3244;42.708;23.288;2023-01-08T00:23:23;53.53;;;27.37;;
6422;SDS011;3244;42.708;23.288;2023-01-08T00:25:50;48.93;;;27.03;;
6422;SDS011;3244;42.708;23.288;2023-01-08T00:28:17;48.08;;;26.45;;
6422;SDS011;3244;42.708;23.288;2023-01-08T00:30:45;46.90;;;26.37;;
6422;SDS011;3244;42.708;23.288;2023-01-08T00:33:11;60.33;;;29.40;;
6422;SDS011;3244;42.708;23.288;2023-01-08T00:35:40;48.77;;;27.20;;
6422;SDS011;3244;42.708;23.288;2023-01-08T00:38:06;46.83;;;26.50;;
6422;SDS011;3244;42.708;23.288;2023-01-08T00:40:33;52.60;;;27.37;;
6422;SDS011;3244;42.708;23.288;2023-01-08T00:43:01;50.07;;;27.63;;
6422;SDS011;3244;42.708;23.288;2023-01-08T00:45:28;60.70;;;27.73;;
6422;SDS011;3244;42.708;23.288;2023-01-08T00:47:55;58.50;;;27.83;;
6422;SDS011;3244;42.708;23.288;2023-01-08T00:50:22;58.20;;;27.17;;
6422;SDS011;3244;42.708;23.288;2023-01-08T00:52:50;55.80;;;26.50;;
6422;SDS011;3244;42.708;23.288;2023-01-08T00:55:17;51.00;;;27.93;;
6422;SDS011;3244;42.708;23.288;2023-01-08T00:57:44;50.90;;;25.87;;
6422;SDS011;3244;42.708;23.288;2023-01-08T01:00:11;47.33;;;25.37;;
6422;SDS011;3244;42.708;23.288;2023-01-08T01:02:40;48.92;;;26.60;;
6422;SDS011;3244;42.708;23.288;2023-01-08T01:05:07;43.47;;;24.40;;
6422;SDS011;3244;42.708;23.288;2023-01-08T01:07:34;49.03;;;26.30;;
6422;SDS011;3244;42.708;23.288;2023-01-08T01:10:03;46.03;;;25.27;;
6422;SDS011;3244;42.708;23.288;2023-01-08T01:12:30;47.80;;;27.23;;
6422;SDS011;3244;42.708;23.288;2023-01-08T01:14:57;52.43;;;27.67;;
6422;SDS011;3244;42.708;23.288;2023-01-08T01:17:24;47.23;;;26.10;;
6422;SDS011;3244;42.708;23.288;2023-01-08T01:19:51;51.27;;;26.33;;
6422;SDS011;3244;42.708;23.288;2023-01-08T01:22:17;49.67;;;25.27;;
6422;SDS011;3244;42.708;23.288;2023-01-08T01:24:44;46.37;;;25.60;;
6422;SDS011;3244;42.708;23.288;2023-01-08T01:27:12;49.53;;;27.52;;
6422;SDS011;3244;42.708;23.288;2023-01-08T01:29:39;53.13;;;26.73;;
6422;SDS011;3244;42.708;23.288;2023-01-08T01:32:06;47.20;;;25.73;;
6422;SDS011;3244;42.708;23.288;2023-01-08T01:34:33;45.40;;;26.53;;
6422;SDS011;3244;42.708;23.288;2023-01-08T01:37:01;47.20;;;26.13;;
6422;SDS011;3244;42.708;23.288;2023-01-08T01:39:28;47.05;;;26.17;;
6422;SDS011;3244;42.708;23.288;2023-01-08T01:41:55;55.40;;;27.10;;
6422;SDS011;3244;42.708;23.288;2023-01-08T01:44:37;51.33;;;26.83;;
6422;SDS011;3244;42.708;23.288;2023-01-08T01:47:10;50.67;;;26.10;;
6422;SDS011;3244;42.708;23.288;2023-01-08T01:49:47;52.33;;;27.23;;
6422;SDS011;3244;42.708;23.288;2023-01-08T01:52:18;52.00;;;25.23;;
6422;SDS011;3244;42.708;23.288;2023-01-08T01:54:46;47.63;;;26.00;;
6422;SDS011;3244;42.708;23.288;2023-01-08T01:57:14;47.60;;;25.77;;
6422;SDS011;3244;42.708;23.288;2023-01-08T01:59:42;54.97;;;26.00;;
6422;SDS011;3244;42.708;23.288;2023-01-08T02:02:11;56.13;;;25.67;;
6422;SDS011;3244;42.708;23.288;2023-01-08T02:04:37;42.73;;;23.07;;
6422;SDS011;3244;42.708;23.288;2023-01-08T02:07:06;44.97;;;24.30;;
6422;SDS011;3244;42.708;23.288;2023-01-08T02:09:40;48.20;;;23.93;;
6422;SDS011;3244;42.708;23.288;2023-01-08T02:12:14;43.67;;;22.37;;
6422;SDS011;3244;42.708;23.288;2023-01-08T02:14:55;40.63;;;22.87;;
6422;SDS011;3244;42.708;23.288;2023-01-08T02:17:32;37.60;;;23.23;;
6422;SDS011;3244;42.708;23.288;2023-01-08T02:20:06;42.73;;;23.20;;
6422;SDS011;3244;42.708;23.288;2023-01-08T02:22:43;46.03;;;23.08;;
6422;SDS011;3244;42.708;23.288;2023-01-08T02:25:17;44.15;;;23.05;;
6422;SDS011;3244;42.708;23.288;2023-01-08T02:27:54;45.03;;;24.53;;
6422;SDS011;3244;42.708;23.288;2023-01-08T02:30:24;42.15;;;22.85;;
6422;SDS011;3244;42.708;23.288;2023-01-08T02:32:51;37.00;;;21.70;;
6422;SDS011;3244;42.708;23.288;2023-01-08T02:35:18;39.57;;;22.50;;
6422;SDS011;3244;42.708;23.288;2023-01-08T02:37:45;41.43;;;22.30;;
6422;SDS011;3244;42.708;23.288;2023-01-08T02:40:14;39.47;;;21.37;;
6422;SDS011;3244;42.708;23.288;2023-01-08T02:42:51;35.63;;;21.53;;
6422;SDS011;3244;42.708;23.288;2023-01-08T02:45:25;40.20;;;21.38;;
6422;SDS011;3244;42.708;23.288;2023-01-08T02:48:01;37.93;;;22.73;;
6422;SDS011;3244;42.708;23.288;2023-01-08T02:50:35;43.03;;;23.07;;
6422;SDS011;3244;42.708;23.288;2023-01-08T02:53:08;42.47;;;23.87;;
6422;SDS011;3244;42.708;23.288;2023-01-08T02:55:38;63.05;;;24.88;;
6422;SDS011;3244;42.708;23.288;2023-01-08T02:58:09;38.27;;;23.00;;
6422;SDS011;3244;42.708;23.288;2023-01-08T03:00:37;55.93;;;28.50;;
6422;SDS011;3244;42.708;23.288;2023-01-08T03:03:08;44.03;;;25.33;;
6422;SDS011;3244;42.708;23.288;2023-01-08T03:05:38;43.20;;;23.37;;
6422;SDS011;3244;42.708;23.288;2023-01-08T03:08:07;42.63;;;22.75;;
6422;SDS011;3244;42.708;23.288;2023-01-08T03:10:35;38.10;;;22.85;;
6422;SDS011;3244;42.708;23.288;2023-01-08T03:13:04;34.00;;;21.37;;
6422;SDS011;3244;42.708;23.288;2023-01-08T03:15:39;41.23;;;21.53;;
6422;SDS011;3244;42.708;23.288;2023-01-08T03:18:12;43.10;;;22.53;;
6422;SDS011;3244;42.708;23.288;2023-01-08T03:20:43;38.13;;;21.67;;
6422;SDS011;3244;42.708;23.288;2023-01-08T03:23:12;38.45;;;21.65;;
6422;SDS011;3244;42.708;23.288;2023-01-08T03:25:42;37.40;;;23.13;;
6422;SDS011;3244;42.708;23.288;2023-01-08T03:28:12;37.07;;;21.83;;
6422;SDS011;3244;42.708;23.288;2023-01-08T03:30:45;38.97;;;21.97;;
6422;SDS011;3244;42.708;23.288;2023-01-08T03:33:14;41.07;;;21.73;;
6422;SDS011;3244;42.708;23.288;2023-01-08T03:35:43;40.33;;;22.63;;
6422;SDS011;3244;42.708;23.288;2023-01-08T03:38:16;40.90;;;20.98;;
6422;SDS011;3244;42.708;23.288;2023-01-08T03:40:48;35.37;;;21.33;;
6422;SDS011;3244;42.708;23.288;2023-01-08T03:43:19;39.28;;;21.85;;
6422;SDS011;3244;42.708;23.288;2023-01-08T03:45:48;35.47;;;21.63;;
6422;SDS011;3244;42.708;23.288;2023-01-08T03:48:17;36.50;;;21.67;;
6422;SDS011;3244;42.708;23.288;2023-01-08T03:50:46;34.30;;;21.67;;
6422;SDS011;3244;42.708;23.288;2023-01-08T03:53:13;46.57;;;23.27;;
6422;SDS011;3244;42.708;23.288;2023-01-08T03:55:40;46.63;;;23.88;;
6422;SDS011;3244;42.708;23.288;2023-01-08T03:58:07;29.23;;;20.90;;
6422;SDS011;3244;42.708;23.288;2023-01-08T04:00:33;39.00;;;20.93;;
6422;SDS011;3244;42.708;23.288;2023-01-08T04:03:01;35.30;;;20.80;;
6422;SDS011;3244;42.708;23.288;2023-01-08T04:05:28;34.33;;;20.17;;
6422;SDS011;3244;42.708;23.288;2023-01-08T04:07:55;35.43;;;20.47;;
6422;SDS011;3244;42.708;23.288;2023-01-08T04:10:23;35.97;;;20.13;;
6422;SDS011;3244;42.708;23.288;2023-01-08T04:12:50;30.37;;;20.17;;
6422;SDS011;3244;42.708;23.288;2023-01-08T04:15:18;33.77;;;21.13;;
6422;SDS011;3244;42.708;23.288;2023-01-08T04:17:45;34.50;;;20.50;;
6422;SDS011;3244;42.708;23.288;2023-01-08T04:20:14;34.63;;;19.97;;
6422;SDS011;3244;42.708;23.288;2023-01-08T04:22:40;35.13;;;20.27;;
6422;SDS011;3244;42.708;23.288;2023-01-08T04:25:07;39.27;;;20.23;;
6422;SDS011;3244;42.708;23.288;2023-01-08T04:27:34;30.20;;;19.07;;
6422;SDS011;3244;42.708;23.288;2023-01-08T04:30:01;29.37;;;19.87;;
6422;SDS011;3244;42.708;23.288;2023-01-08T04:32:28;33.37;;;19.20;;
6422;SDS011;3244;42.708;23.288;2023-01-08T04:34:55;33.10;;;18.50;;
6422;SDS011;3244;42.708;23.288;2023-01-08T04:37:23;27.33;;;18.20;;
6422;SDS011;3244;42.708;23.288;2023-01-08T04:39:50;35.63;;;19.40;;
6422;SDS011;3244;42.708;23.288;2023-01-08T04:42:17;36.23;;;19.07;;
6422;SDS011;3244;42.708;23.288;2023-01-08T04:44:43;34.03;;;19.83;;
6422;SDS011;3244;42.708;23.288;2023-01-08T04:47:10;35.93;;;20.00;;
6422;SDS011;3244;42.708;23.288;2023-01-08T04:49:37;32.20;;;18.83;;
6422;SDS011;3244;42.708;23.288;2023-01-08T04:52:04;36.53;;;19.80;;
6422;SDS011;3244;42.708;23.288;2023-01-08T04:54:32;40.23;;;22.03;;
6422;SDS011;3244;42.708;23.288;2023-01-08T04:56:58;37.13;;;20.00;;
6422;SDS011;3244;42.708;23.288;2023-01-08T04:59:25;49.00;;;22.97;;
6422;SDS011;3244;42.708;23.288;2023-01-08T05:01:52;48.97;;;25.77;;
6422;SDS011;3244;42.708;23.288;2023-01-08T05:04:20;42.63;;;20.97;;
6422;SDS011;3244;42.708;23.288;2023-01-08T05:06:47;45.17;;;23.63;;
6422;SDS011;3244;42.708;23.288;2023-01-08T05:09:14;40.17;;;20.57;;
6422;SDS011;3244;42.708;23.288;2023-01-08T05:11:42;36.20;;;22.30;;
6422;SDS011;3244;42.708;23.288;2023-01-08T05:14:09;41.93;;;20.80;;
6422;SDS011;3244;42.708;23.288;2023-01-08T05:16:35;37.77;;;20.87;;
6422;SDS011;3244;42.708;23.288;2023-01-08T05:19:02;42.10;;;21.30;;
6422;SDS011;3244;42.708;23.288;2023-01-08T05:21:29;40.47;;;20.97;;
6422;SDS011;3244;42.708;23.288;2023-01-08T05:23:56;41.60;;;21.97;;
6422;SDS011;3244;42.708;23.288;2023-01-08T05:26:22;41.23;;;22.93;;
6422;SDS011;3244;42.708;23.288;2023-01-08T05:28:51;42.13;;;22.63;;
6422;SDS011;3244;42.708;23.288;2023-01-08T05:31:18;46.43;;;23.67;;
6422;SDS011;3244;42.708;23.288;2023-01-08T05:33:44;35.47;;;20.37;;
6422;SDS011;3244;42.708;23.288;2023-01-08T05:36:11;42.87;;;20.67;;
6422;SDS011;3244;42.708;23.288;2023-01-08T05:38:38;44.30;;;21.77;;
6422;SDS011;3244;42.708;23.288;2023-01-08T05:41:06;39.80;;;20.87;;
6422;SDS011;3244;42.708;23.288;2023-01-08T05:43:33;39.57;;;21.03;;
6422;SDS011;3244;42.708;23.288;2023-01-08T05:46:01;33.93;;;19.80;;
6422;SDS011;3244;42.708;23.288;2023-01-08T05:48:29;33.70;;;20.73;;
6422;SDS011;3244;42.708;23.288;2023-01-08T05:50:57;30.67;;;19.73;;
6422;SDS011;3244;42.708;23.288;2023-01-08T05:53:24;39.40;;;20.60;;
6422;SDS011;3244;42.708;23.288;2023-01-08T05:55:51;36.97;;;19.27;;
6422;SDS011;3244;42.708;23.288;2023-01-08T05:58:23;40.33;;;22.47;;
6422;SDS011;3244;42.708;23.288;2023-01-08T06:00:51;35.70;;;20.63;;
6422;SDS011;3244;42.708;23.288;2023-01-08T06:03:20;42.92;;;21.92;;
6422;SDS011;3244;42.708;23.288;2023-01-08T06:05:47;36.77;;;21.43;;
6422;SDS011;3244;42.708;23.288;2023-01-08T06:08:13;37.63;;;22.67;;
6422;SDS011;3244;42.708;23.288;2023-01-08T06:10:40;38.63;;;22.73;;
6422;SDS011;3244;42.708;23.288;2023-01-08T06:13:07;44.23;;;23.27;;
6422;SDS011;3244;42.708;23.288;2023-01-08T06:15:34;38.90;;;22.23;;
6422;SDS011;3244;42.708;23.288;2023-01-08T06:18:02;39.67;;;21.93;;
6422;SDS011;3244;42.708;23.288;2023-01-08T06:20:30;49.63;;;22.80;;
6422;SDS011;3244;42.708;23.288;2023-01-08T06:22:57;43.10;;;21.87;;
6422;SDS011;3244;42.708;23.288;2023-01-08T06:25:24;39.40;;;20.03;;
6422;SDS011;3244;42.708;23.288;2023-01-08T06:27:51;35.83;;;20.10;;
6422;SDS011;3244;42.708;23.288;2023-01-08T06:30:18;40.93;;;20.53;;
6422;SDS011;3244;42.708;23.288;2023-01-08T06:32:45;34.83;;;18.83;;
6422;SDS011;3244;42.708;23.288;2023-01-08T06:35:11;34.10;;;19.80;;
6422;SDS011;3244;42.708;23.288;2023-01-08T06:37:39;37.83;;;20.07;;
6422;SDS011;3244;42.708;23.288;2023-01-08T06:40:07;40.85;;;21.10;;
6422;SDS011;3244;42.708;23.288;2023-01-08T06:42:34;40.63;;;22.27;;
6422;SDS011;3244;42.708;23.288;2023-01-08T06:45:01;46.05;;;22.88;;
6422;SDS011;3244;42.708;23.288;2023-01-08T06:47:28;39.47;;;22.23;;
6422;SDS011;3244;42.708;23.288;2023-01-08T06:49:54;49.90;;;24.23;;
6422;SDS011;3244;42.708;23.288;2023-01-08T06:52:23;46.97;;;24.13;;
6422;SDS011;3244;42.708;23.288;2023-01-08T06:54:51;53.83;;;24.90;;
6422;SDS011;3244;42.708;23.288;2023-01-08T06:57:18;43.87;;;25.17;;
6422;SDS011;3244;42.708;23.288;2023-01-08T06:59:45;55.53;;;26.63;;
6422;SDS011;3244;42.708;23.288;2023-01-08T07:02:12;58.30;;;29.10;;
6422;SDS011;3244;42.708;23.288;2023-01-08T07:04:40;65.30;;;30.50;;
6422;SDS011;3244;42.708;23.288;2023-01-08T07:07:06;46.80;;;25.00;;
6422;SDS011;3244;42.708;23.288;2023-01-08T07:09:34;39.25;;;20.98;;
6422;SDS011;3244;42.708;23.288;2023-01-08T07:12:02;32.83;;;18.90;;
6422;SDS011;3244;42.708;23.288;2023-01-08T07:14:29;35.43;;;18.47;;
6422;SDS011;3244;42.708;23.288;2023-01-08T07:16:56;32.40;;;19.00;;
6422;SDS011;3244;42.708;23.288;2023-01-08T07:19:23;34.05;;;20.42;;
6422;SDS011;3244;42.708;23.288;2023-01-08T07:21:49;33.40;;;20.50;;
6422;SDS011;3244;42.708;23.288;2023-01-08T07:24:16;33.85;;;21.38;;
6422;SDS011;3244;42.708;23.288;2023-01-08T07:26:43;39.70;;;22.60;;
6422;SDS011;3244;42.708;23.288;2023-01-08T07:29:11;41.20;;;24.17;;
6422;SDS011;3244;42.708;23.288;2023-01-08T07:31:38;43.35;;;24.40;;
6422;SDS011;3244;42.708;23.288;2023-01-08T07:34:04;44.38;;;28.05;;
6422;SDS011;3244;42.708;23.288;2023-01-08T07:36:31;43.85;;;28.38;;
6422;SDS011;3244;42.708;23.288;2023-01-08T07:38:58;48.78;;;29.75;;
6422;SDS011;3244;42.708;23.288;2023-01-08T07:41:25;45.40;;;27.70;;
6422;SDS011;3244;42.708;23.288;2023-01-08T07:43:52;48.28;;;28.90;;
6422;SDS011;3244;42.708;23.288;2023-01-08T07:46:20;44.30;;;27.73;;
6422;SDS011;3244;42.708;23.288;2023-01-08T07:48:47;47.03;;;28.10;;
6422;SDS011;3244;42.708;23.288;2023-01-08T07:51:14;49.65;;;28.00;;
6422;SDS011;3244;42.708;23.288;2023-01-08T07:53:41;53.83;;;29.38;;
6422;SDS011;3244;42.708;23.288;2023-01-08T07:56:09;47.92;;;30.50;;
6422;SDS011;3244;42.708;23.288;2023-01-08T07:58:36;54.95;;;33.13;;
6422;SDS011;3244;42.708;23.288;2023-01-08T08:01:03;59.53;;;34.92;;
6422;SDS011;3244;42.708;23.288;2023-01-08T08:03:36;58.45;;;32.55;;
6422;SDS011;3244;42.708;23.288;2023-01-08T08:06:03;49.70;;;30.38;;
6422;SDS011;3244;42.708;23.288;2023-01-08T08:08:30;57.92;;;31.40;;
6422;SDS011;3244;42.708;23.288;2023-01-08T08:10:57;48.00;;;31.08;;
6422;SDS011;3244;42.708;23.288;2023-01-08T08:13:24;52.25;;;31.80;;
6422;SDS011;3244;42.708;23.288;2023-01-08T08:15:51;50.83;;;31.52;;
6422;SDS011;3244;42.708;23.288;2023-01-08T08:18:17;49.45;;;29.23;;
6422;SDS011;3244;42.708;23.288;2023-01-08T08:20:46;54.65;;;29.00;;
6422;SDS011;3244;42.708;23.288;2023-01-08T08:23:16;53.08;;;30.95;;
6422;SDS011;3244;42.708;23.288;2023-01-08T08:25:42;55.47;;;31.42;;
6422;SDS011;3244;42.708;23.288;2023-01-08T08:28:10;52.35;;;31.75;;
6422;SDS011;3244;42.708;23.288;2023-01-08T08:30:37;54.50;;;31.63;;
6422;SDS011;3244;42.708;23.288;2023-01-08T08:33:05;51.05;;;30.63;;
6422;SDS011;3244;42.708;23.288;2023-01-08T08:35:32;59.40;;;34.13;;
6422;SDS011;3244;42.708;23.288;2023-01-08T08:38:01;64.68;;;32.85;;
6422;SDS011;3244;42.708;23.288;2023-01-08T08:40:28;61.00;;;34.00;;
6422;SDS011;3244;42.708;23.288;2023-01-08T08:42:55;57.15;;;31.65;;
6422;SDS011;3244;42.708;23.288;2023-01-08T08:45:22;70.05;;;34.00;;
6422;SDS011;3244;42.708;23.288;2023-01-08T08:47:49;60.25;;;34.10;;
6422;SDS011;3244;42.708;23.288;2023-01-08T08:50:16;61.97;;;34.58;;
6422;SDS011;3244;42.708;23.288;2023-01-08T08:52:44;68.28;;;34.92;;
6422;SDS011;3244;42.708;23.288;2023-01-08T08:55:14;70.90;;;37.97;;
6422;SDS011;3244;42.708;23.288;2023-01-08T08:57:42;66.10;;;35.05;;
6422;SDS011;3244;42.708;23.288;2023-01-08T09:00:10;62.15;;;34.55;;
6422;SDS011;3244;42.708;23.288;2023-01-08T09:02:38;60.67;;;34.85;;
6422;SDS011;3244;42.708;23.288;2023-01-08T09:05:05;64.13;;;33.45;;
6422;SDS011;3244;42.708;23.288;2023-01-08T09:07:32;63.45;;;34.67;;
6422;SDS011;3244;42.708;23.288;2023-01-08T09:09:59;66.50;;;33.70;;
6422;SDS011;3244;42.708;23.288;2023-01-08T09:12:27;69.55;;;33.80;;
6422;SDS011;3244;42.708;23.288;2023-01-08T09:14:54;60.08;;;32.28;;
6422;SDS011;3244;42.708;23.288;2023-01-08T09:17:21;51.55;;;32.80;;
6422;SDS011;3244;42.708;23.288;2023-01-08T09:19:49;57.75;;;32.17;;
6422;SDS011;3244;42.708;23.288;2023-01-08T09:22:16;55.05;;;30.95;;
6422;SDS011;3244;42.708;23.288;2023-01-08T09:24:43;45.05;;;26.63;;
6422;SDS011;3244;42.708;23.288;2023-01-08T09:27:09;57.55;;;29.75;;
6422;SDS011;3244;42.708;23.288;2023-01-08T09:29:37;55.13;;;32.17;;
6422;SDS011;3244;42.708;23.288;2023-01-08T09:32:04;51.55;;;30.80;;
6422;SDS011;3244;42.708;23.288;2023-01-08T09:34:32;64.15;;;35.03;;
6422;SDS011;3244;42.708;23.288;2023-01-08T09:37:00;94.18;;;45.85;;
6422;SDS011;3244;42.708;23.288;2023-01-08T09:39:27;83.28;;;41.03;;
6422;SDS011;3244;42.708;23.288;2023-01-08T09:41:53;55.38;;;32.20;;
6422;SDS011;3244;42.708;23.288;2023-01-08T09:44:22;68.32;;;38.75;;
6422;SDS011;3244;42.708;23.288;2023-01-08T09:46:54;57.70;;;34.78;;
6422;SDS011;3244;42.708;23.288;2023-01-08T09:49:23;48.15;;;29.45;;
6422;SDS011;3244;42.708;23.288;2023-01-08T09:51:53;45.60;;;28.00;;
6422;SDS011;3244;42.708;23.288;2023-01-08T09:54:21;42.80;;;27.70;;
6422;SDS011;3244;42.708;23.288;2023-01-08T09:56:51;46.22;;;28.55;;
6422;SDS011;3244;42.708;23.288;2023-01-08T09:59:18;37.60;;;25.05;;
6422;SDS011;3244;42.708;23.288;2023-01-08T10:01:46;41.83;;;26.65;;
6422;SDS011;3244;42.708;23.288;2023-01-08T10:04:15;40.50;;;26.10;;
6422;SDS011;3244;42.708;23.288;2023-01-08T10:06:45;51.90;;;30.95;;
6422;SDS011;3244;42.708;23.288;2023-01-08T10:09:24;63.00;;;36.33;;
6422;SDS011;3244;42.708;23.288;2023-01-08T10:11:53;51.47;;;30.33;;
6422;SDS011;3244;42.708;23.288;2023-01-08T10:14:23;49.75;;;30.85;;
6422;SDS011;3244;42.708;23.288;2023-01-08T10:16:54;55.35;;;33.28;;
6422;SDS011;3244;42.708;23.288;2023-01-08T10:19:25;42.15;;;29.25;;
6422;SDS011;3244;42.708;23.288;2023-01-08T10:21:52;46.30;;;28.92;;
6422;SDS011;3244;42.708;23.288;2023-01-08T10:24:29;59.80;;;29.45;;
6422;SDS011;3244;42.708;23.288;2023-01-08T10:27:04;47.75;;;29.75;;
6422;SDS011;3244;42.708;23.288;2023-01-08T10:29:32;55.78;;;33.42;;
6422;SDS011;3244;42.708;23.288;2023-01-08T10:32:03;46.50;;;29.75;;
6422;SDS011;3244;42.708;23.288;2023-01-08T10:34:40;59.05;;;35.22;;
6422;SDS011;3244;42.708;23.288;2023-01-08T10:37:14;44.05;;;28.67;;
6422;SDS011;3244;42.708;23.288;2023-01-08T10:39:47;41.80;;;27.08;;
6422;SDS011;3244;42.708;23.288;2023-01-08T10:42:15;36.28;;;25.98;;
6422;SDS011;3244;42.708;23.288;2023-01-08T10:44:50;44.05;;;26.83;;
6422;SDS011;3244;42.708;23.288;2023-01-08T10:47:22;41.42;;;27.08;;
6422;SDS011;3244;42.708;23.288;2023-01-08T10:49:51;40.53;;;26.38;;
6422;SDS011;3244;42.708;23.288;2023-01-08T10:52:22;46.75;;;26.77;;
6422;SDS011;3244;42.708;23.288;2023-01-08T10:54:51;40.55;;;24.95;;
6422;SDS011;3244;42.708;23.288;2023-01-08T10:57:22;45.80;;;25.70;;
6422;SDS011;3244;42.708;23.288;2023-01-08T10:59:50;43.28;;;27.92;;
6422;SDS011;3244;42.708;23.288;2023-01-08T11:02:20;44.20;;;26.48;;
6422;SDS011;3244;42.708;23.288;2023-01-08T11:04:52;40.92;;;26.23;;
6422;SDS011;3244;42.708;23.288;2023-01-08T11:07:20;37.67;;;24.83;;
6422;SDS011;3244;42.708;23.288;2023-01-08T11:09:49;37.92;;;25.52;;
6422;SDS011;3244;42.708;23.288;2023-01-08T11:15:04;42.78;;;25.40;;
6422;SDS011;3244;42.708;23.288;2023-01-08T11:17:32;37.80;;;24.88;;
6422;SDS011;3244;42.708;23.288;2023-01-08T11:20:08;37.45;;;25.50;;
6422;SDS011;3244;42.708;23.288;2023-01-08T11:22:44;41.58;;;26.27;;
6422;SDS011;3244;42.708;23.288;2023-01-08T11:25:11;40.60;;;26.35;;
6422;SDS011;3244;42.708;23.288;2023-01-08T11:27:40;39.35;;;24.08;;
6422;SDS011;3244;42.708;23.288;2023-01-08T11:30:10;35.42;;;23.85;;
6422;SDS011;3244;42.708;23.288;2023-01-08T11:32:40;38.92;;;24.02;;
6422;SDS011;3244;42.708;23.288;2023-01-08T11:35:14;39.28;;;23.98;;
6422;SDS011;3244;42.708;23.288;2023-01-08T11:37:47;43.15;;;25.80;;
6422;SDS011;3244;42.708;23.288;2023-01-08T11:40:21;40.17;;;24.60;;
6422;SDS011;3244;42.708;23.288;2023-01-08T11:43:03;49.85;;;26.40;;
6422;SDS011;3244;42.708;23.288;2023-01-08T11:45:57;38.75;;;25.05;;
6422;SDS011;3244;42.708;23.288;2023-01-08T11:48:47;45.00;;;27.05;;
6422;SDS011;3244;42.708;23.288;2023-01-08T11:51:33;46.80;;;27.27;;
6422;SDS011;3244;42.708;23.288;2023-01-08T11:54:06;44.33;;;26.08;;
6422;SDS011;3244;42.708;23.288;2023-01-08T11:56:46;39.25;;;26.45;;
6422;SDS011;3244;42.708;23.288;2023-01-08T11:59:28;56.35;;;32.80;;
6422;SDS011;3244;42.708;23.288;2023-01-08T12:02:07;45.10;;;28.73;;
6422;SDS011;3244;42.708;23.288;2023-01-08T12:04:52;47.08;;;27.52;;
6422;SDS011;3244;42.708;23.288;2023-01-08T12:07:31;40.10;;;25.63;;
6422;SDS011;3244;42.708;23.288;2023-01-08T12:10:08;39.65;;;24.95;;
6422;SDS011;3244;42.708;23.288;2023-01-08T12:12:45;44.95;;;26.23;;
6422;SDS011;3244;42.708;23.288;2023-01-08T12:15:23;39.53;;;24.92;;
6422;SDS011;3244;42.708;23.288;2023-01-08T12:18:14;37.10;;;22.75;;
6422;SDS011;3244;42.708;23.288;2023-01-08T12:20:52;36.72;;;23.20;;
6422;SDS011;3244;42.708;23.288;2023-01-08T12:23:31;34.28;;;23.67;;
6422;SDS011;3244;42.708;23.288;2023-01-08T12:26:08;45.92;;;25.13;;
6422;SDS011;3244;42.708;23.288;2023-01-08T12:28:49;35.50;;;24.10;;
6422;SDS011;3244;42.708;23.288;2023-01-08T12:34:20;40.97;;;23.15;;
6422;SDS011;3244;42.708;23.288;2023-01-08T12:36:56;40.03;;;22.48;;
6422;SDS011;3244;42.708;23.288;2023-01-08T12:39:35;40.15;;;22.70;;
6422;SDS011;3244;42.708;23.288;2023-01-08T12:42:10;33.38;;;20.98;;
6422;SDS011;3244;42.708;23.288;2023-01-08T12:44:41;29.67;;;19.25;;
6422;SDS011;3244;42.708;23.288;2023-01-08T12:47:12;62.10;;;21.65;;
6422;SDS011;3244;42.708;23.288;2023-01-08T12:49:43;41.58;;;20.33;;
6422;SDS011;3244;42.708;23.288;2023-01-08T12:52:17;29.40;;;17.88;;
6422;SDS011;3244;42.708;23.288;2023-01-08T12:54:50;27.02;;;19.20;;
6422;SDS011;3244;42.708;23.288;2023-01-08T12:57:24;29.73;;;20.58;;
6422;SDS011;3244;42.708;23.288;2023-01-08T12:59:58;31.80;;;20.65;;
6422;SDS011;3244;42.708;23.288;2023-01-08T13:02:33;43.53;;;23.75;;
6422;SDS011;3244;42.708;23.288;2023-01-08T13:05:10;40.97;;;24.02;;
6422;SDS011;3244;42.708;23.288;2023-01-08T13:07:41;57.38;;;32.15;;
6422;SDS011;3244;42.708;23.288;2023-01-08T13:10:20;43.78;;;25.92;;
6422;SDS011;3244;42.708;23.288;2023-01-08T13:12:53;44.80;;;24.17;;
6422;SDS011;3244;42.708;23.288;2023-01-08T13:15:22;43.83;;;24.40;;
6422;SDS011;3244;42.708;23.288;2023-01-08T13:17:51;35.97;;;23.27;;
6422;SDS011;3244;42.708;23.288;2023-01-08T13:20:20;39.53;;;24.05;;
6422;SDS011;3244;42.708;23.288;2023-01-08T13:22:51;36.30;;;22.98;;
6422;SDS011;3244;42.708;23.288;2023-01-08T13:25:31;38.75;;;23.45;;
6422;SDS011;3244;42.708;23.288;2023-01-08T13:27:59;43.63;;;23.42;;
6422;SDS011;3244;42.708;23.288;2023-01-08T13:30:34;32.58;;;21.90;;
6422;SDS011;3244;42.708;23.288;2023-01-08T13:36:06;34.28;;;22.33;;
6422;SDS011;3244;42.708;23.288;2023-01-08T13:38:45;36.67;;;21.65;;
6422;SDS011;3244;42.708;23.288;2023-01-08T13:41:26;38.72;;;25.20;;
6422;SDS011;3244;42.708;23.288;2023-01-08T13:43:56;44.42;;;25.27;;
6422;SDS011;3244;42.708;23.288;2023-01-08T13:46:26;36.38;;;21.60;;
6422;SDS011;3244;42.708;23.288;2023-01-08T13:48:56;37.97;;;22.15;;
6422;SDS011;3244;42.708;23.288;2023-01-08T13:54:18;33.60;;;22.38;;
6422;SDS011;3244;42.708;23.288;2023-01-08T13:56:50;39.28;;;20.98;;
6422;SDS011;3244;42.708;23.288;2023-01-08T13:59:23;33.05;;;19.75;;
6422;SDS011;3244;42.708;23.288;2023-01-08T14:01:56;33.05;;;20.52;;
6422;SDS011;3244;42.708;23.288;2023-01-08T14:04:25;35.25;;;21.33;;
6422;SDS011;3244;42.708;23.288;2023-01-08T14:06:52;31.52;;;19.80;;
6422;SDS011;3244;42.708;23.288;2023-01-08T14:09:19;27.77;;;19.55;;
6422;SDS011;3244;42.708;23.288;2023-01-08T14:11:50;28.77;;;20.33;;
6422;SDS011;3244;42.708;23.288;2023-01-08T14:14:19;34.75;;;20.00;;
6422;SDS011;3244;42.708;23.288;2023-01-08T14:16:49;28.58;;;18.67;;
6422;SDS011;3244;42.708;23.288;2023-01-08T14:19:17;36.00;;;21.27;;
6422;SDS011;3244;42.708;23.288;2023-01-08T14:21:46;37.47;;;21.38;;
6422;SDS011;3244;42.708;23.288;2023-01-08T14:24:14;39.25;;;22.38;;
6422;SDS011;3244;42.708;23.288;2023-01-08T14:26:42;27.02;;;19.35;;
6422;SDS011;3244;42.708;23.288;2023-01-08T14:29:12;32.28;;;19.10;;
6422;SDS011;3244;42.708;23.288;2023-01-08T14:31:44;26.02;;;18.05;;
6422;SDS011;3244;42.708;23.288;2023-01-08T14:34:11;28.55;;;18.65;;
6422;SDS011;3244;42.708;23.288;2023-01-08T14:36:39;48.35;;;29.52;;
6422;SDS011;3244;42.708;23.288;2023-01-08T14:39:09;34.45;;;21.95;;
6422;SDS011;3244;42.708;23.288;2023-01-08T14:41:37;33.45;;;19.73;;
6422;SDS011;3244;42.708;23.288;2023-01-08T14:44:25;33.05;;;19.67;;
6422;SDS011;3244;42.708;23.288;2023-01-08T14:46:52;33.42;;;19.88;;
6422;SDS011;3244;42.708;23.288;2023-01-08T14:49:21;34.08;;;21.38;;
6422;SDS011;3244;42.708;23.288;2023-01-08T14:51:50;31.35;;;19.40;;
6422;SDS011;3244;42.708;23.288;2023-01-08T14:54:18;30.13;;;20.92;;
6422;SDS011;3244;42.708;23.288;2023-01-08T14:56:48;34.75;;;19.05;;
6422;SDS011;3244;42.708;23.288;2023-01-08T14:59:18;31.92;;;19.38;;